sensor_id;sensor_type;location;lat;lon;timestamp;temperature;humidity
9219;DHT22;4644;48.858;9.184;2023-10-31T00:01:38;11.00;99.90
9219;DHT22;4644;48.858;9.184;2023-10-31T00:04:05;11.00;99.90
9219;DHT22;4644;48.858;9.184;2023-10-31T00:06:34;11.00;99.90
9219;DHT22;4644;48.858;9.184;2023-10-31T00:09:01;10.90;99.90
9219;DHT22;4644;48.858;9.184;2023-10-31T00:11:28;11.00;99.90
9219;DHT22;4644;48.858;9.184;2023-10-31T00:13:55;11.00;99.90
9219;DHT22;4644;48.858;9.184;2023-10-31T00:16:22;11.00;99.90
9219;DHT22;4644;48.858;9.184;2023-10-31T00:22:12;11.00;99.90
9219;DHT22;4644;48.858;9.184;2023-10-31T00:24:39;11.00;99.90
9219;DHT22;4644;48.858;9.184;2023-10-31T00:27:06;11.00;99.90
9219;DHT22;4644;48.858;9.184;2023-10-31T00:29:33;11.00;99.90
9219;DHT22;4644;48.858;9.184;2023-10-31T00:32:00;10.90;99.90
9219;DHT22;4644;48.858;9.184;2023-10-31T00:34:27;10.90;99.90
9219;DHT22;4644;48.858;9.184;2023-10-31T00:36:53;10.90;99.90
9219;DHT22;4644;48.858;9.184;2023-10-31T00:39:22;10.90;99.90
9219;DHT22;4644;48.858;9.184;2023-10-31T00:41:49;10.90;99.90
9219;DHT22;4644;48.858;9.184;2023-10-31T00:44:16;10.90;99.90
9219;DHT22;4644;48.858;9.184;2023-10-31T00:46:43;10.90;99.90
9219;DHT22;4644;48.858;9.184;2023-10-31T00:49:10;10.90;99.90
9219;DHT22;4644;48.858;9.184;2023-10-31T00:51:37;10.80;99.90
9219;DHT22;4644;48.858;9.184;2023-10-31T00:54:04;10.80;99.90
9219;DHT22;4644;48.858;9.184;2023-10-31T00:56:33;10.80;99.90
9219;DHT22;4644;48.858;9.184;2023-10-31T00:59:00;10.80;99.90
9219;DHT22;4644;48.858;9.184;2023-10-31T01:04:48;10.60;99.90
9219;DHT22;4644;48.858;9.184;2023-10-31T01:07:15;10.50;99.90
9219;DHT22;4644;48.858;9.184;2023-10-31T01:09:43;10.40;99.90
9219;DHT22;4644;48.858;9.184;2023-10-31T01:12:12;10.30;99.90
9219;DHT22;4644;48.858;9.184;2023-10-31T01:14:39;10.30;99.90
9219;DHT22;4644;48.858;9.184;2023-10-31T01:17:06;10.10;99.90
9219;DHT22;4644;48.858;9.184;2023-10-31T01:19:33;10.10;99.90
9219;DHT22;4644;48.858;9.184;2023-10-31T01:22:00;10.00;99.90
9219;DHT22;4644;48.858;9.184;2023-10-31T01:24:27;10.00;99.90
9219;DHT22;4644;48.858;9.184;2023-10-31T01:26:54;10.00;99.90
9219;DHT22;4644;48.858;9.184;2023-10-31T01:29:23;9.90;99.90
9219;DHT22;4644;48.858;9.184;2023-10-31T01:31:49;9.80;99.90
9219;DHT22;4644;48.858;9.184;2023-10-31T01:34:16;9.70;99.90
9219;DHT22;4644;48.858;9.184;2023-10-31T01:36:43;9.70;99.90
9219;DHT22;4644;48.858;9.184;2023-10-31T01:39:10;9.70;99.90
9219;DHT22;4644;48.858;9.184;2023-10-31T01:41:37;9.70;99.90
9219;DHT22;4644;48.858;9.184;2023-10-31T01:44:07;9.60;99.90
9219;DHT22;4644;48.858;9.184;2023-10-31T01:46:36;9.60;99.90
9219;DHT22;4644;48.858;9.184;2023-10-31T01:49:03;9.60;99.90
9219;DHT22;4644;48.858;9.184;2023-10-31T01:51:30;9.60;99.90
9219;DHT22;4644;48.858;9.184;2023-10-31T01:53:57;9.60;99.90
9219;DHT22;4644;48.858;9.184;2023-10-31T01:56:25;9.60;99.90
9219;DHT22;4644;48.858;9.184;2023-10-31T01:58:53;9.60;99.90
9219;DHT22;4644;48.858;9.184;2023-10-31T02:01:20;9.60;99.90
9219;DHT22;4644;48.858;9.184;2023-10-31T02:03:48;9.60;99.90
9219;DHT22;4644;48.858;9.184;2023-10-31T02:06:16;9.60;99.90
9219;DHT22;4644;48.858;9.184;2023-10-31T02:08:43;9.60;99.90
9219;DHT22;4644;48.858;9.184;2023-10-31T02:11:10;9.70;99.90
9219;DHT22;4644;48.858;9.184;2023-10-31T02:13:37;9.70;99.90
9219;DHT22;4644;48.858;9.184;2023-10-31T02:16:04;9.60;99.90
9219;DHT22;4644;48.858;9.184;2023-10-31T02:18:31;9.70;99.90
9219;DHT22;4644;48.858;9.184;2023-10-31T02:21:00;9.70;99.90
9219;DHT22;4644;48.858;9.184;2023-10-31T02:23:28;9.60;99.90
9219;DHT22;4644;48.858;9.184;2023-10-31T02:25:55;9.70;99.90
9219;DHT22;4644;48.858;9.184;2023-10-31T02:28:22;9.60;99.90
9219;DHT22;4644;48.858;9.184;2023-10-31T02:30:53;9.60;99.90
9219;DHT22;4644;48.858;9.184;2023-10-31T02:33:20;9.70;99.90
9219;DHT22;4644;48.858;9.184;2023-10-31T02:35:47;9.60;99.90
9219;DHT22;4644;48.858;9.184;2023-10-31T02:38:14;9.60;99.90
9219;DHT22;4644;48.858;9.184;2023-10-31T02:40:42;9.60;99.90
9219;DHT22;4644;48.858;9.184;2023-10-31T02:43:09;9.70;99.90
9219;DHT22;4644;48.858;9.184;2023-10-31T02:45:36;9.70;99.90
9219;DHT22;4644;48.858;9.184;2023-10-31T02:48:04;9.70;99.90
9219;DHT22;4644;48.858;9.184;2023-10-31T02:50:31;9.60;99.90
9219;DHT22;4644;48.858;9.184;2023-10-31T02:52:58;9.60;99.90
9219;DHT22;4644;48.858;9.184;2023-10-31T02:55:25;9.60;99.90
9219;DHT22;4644;48.858;9.184;2023-10-31T02:57:53;9.60;99.90
9219;DHT22;4644;48.858;9.184;2023-10-31T03:00:20;9.60;99.90
9219;DHT22;4644;48.858;9.184;2023-10-31T03:02:47;9.50;99.90
9219;DHT22;4644;48.858;9.184;2023-10-31T03:05:14;9.50;99.90
9219;DHT22;4644;48.858;9.184;2023-10-31T03:07:41;9.50;99.90
9219;DHT22;4644;48.858;9.184;2023-10-31T03:10:09;9.50;99.90
9219;DHT22;4644;48.858;9.184;2023-10-31T03:12:36;9.60;99.90
9219;DHT22;4644;48.858;9.184;2023-10-31T03:15:06;9.50;99.90
9219;DHT22;4644;48.858;9.184;2023-10-31T03:17:33;9.60;99.90
9219;DHT22;4644;48.858;9.184;2023-10-31T03:20:00;9.50;99.90
9219;DHT22;4644;48.858;9.184;2023-10-31T03:22:28;9.50;99.90
9219;DHT22;4644;48.858;9.184;2023-10-31T03:24:55;9.50;99.90
9219;DHT22;4644;48.858;9.184;2023-10-31T03:27:22;9.50;99.90
9219;DHT22;4644;48.858;9.184;2023-10-31T03:29:49;9.60;99.90
9219;DHT22;4644;48.858;9.184;2023-10-31T03:32:18;9.50;99.90
9219;DHT22;4644;48.858;9.184;2023-10-31T03:34:45;9.50;99.90
9219;DHT22;4644;48.858;9.184;2023-10-31T03:37:12;9.50;99.90
9219;DHT22;4644;48.858;9.184;2023-10-31T03:39:39;9.50;99.90
9219;DHT22;4644;48.858;9.184;2023-10-31T03:42:06;9.50;99.90
9219;DHT22;4644;48.858;9.184;2023-10-31T03:44:33;9.60;99.90
9219;DHT22;4644;48.858;9.184;2023-10-31T03:47:00;9.50;99.90
9219;DHT22;4644;48.858;9.184;2023-10-31T03:49:29;9.50;99.90
9219;DHT22;4644;48.858;9.184;2023-10-31T03:51:56;9.50;99.90
9219;DHT22;4644;48.858;9.184;2023-10-31T03:54:23;9.40;99.90
9219;DHT22;4644;48.858;9.184;2023-10-31T03:56:50;9.40;99.90
9219;DHT22;4644;48.858;9.184;2023-10-31T03:59:16;9.40;99.90
9219;DHT22;4644;48.858;9.184;2023-10-31T04:01:43;9.50;99.90
9219;DHT22;4644;48.858;9.184;2023-10-31T04:04:10;9.40;99.90
9219;DHT22;4644;48.858;9.184;2023-10-31T04:06:39;9.40;99.90
9219;DHT22;4644;48.858;9.184;2023-10-31T04:09:06;9.50;99.90
9219;DHT22;4644;48.858;9.184;2023-10-31T04:11:33;9.50;99.90
9219;DHT22;4644;48.858;9.184;2023-10-31T04:14:00;9.50;99.90
9219;DHT22;4644;48.858;9.184;2023-10-31T04:16:27;9.50;99.90
9219;DHT22;4644;48.858;9.184;2023-10-31T04:18:54;9.50;99.90
9219;DHT22;4644;48.858;9.184;2023-10-31T04:21:21;9.50;99.90
9219;DHT22;4644;48.858;9.184;2023-10-31T04:23:49;9.50;99.90
9219;DHT22;4644;48.858;9.184;2023-10-31T04:26:16;9.50;99.90
9219;DHT22;4644;48.858;9.184;2023-10-31T04:28:43;9.50;99.90
9219;DHT22;4644;48.858;9.184;2023-10-31T04:31:10;9.60;99.90
9219;DHT22;4644;48.858;9.184;2023-10-31T04:33:37;9.60;99.90
9219;DHT22;4644;48.858;9.184;2023-10-31T04:36:05;9.60;99.90
9219;DHT22;4644;48.858;9.184;2023-10-31T04:38:32;9.60;99.90
9219;DHT22;4644;48.858;9.184;2023-10-31T04:41:00;9.50;99.90
9219;DHT22;4644;48.858;9.184;2023-10-31T04:43:27;9.50;99.90
9219;DHT22;4644;48.858;9.184;2023-10-31T04:45:54;9.40;99.90
9219;DHT22;4644;48.858;9.184;2023-10-31T04:48:21;9.40;99.90
9219;DHT22;4644;48.858;9.184;2023-10-31T04:50:47;9.40;99.90
9219;DHT22;4644;48.858;9.184;2023-10-31T04:53:14;9.40;99.90
9219;DHT22;4644;48.858;9.184;2023-10-31T04:55:41;9.30;99.90
9219;DHT22;4644;48.858;9.184;2023-10-31T04:58:10;9.30;99.90
9219;DHT22;4644;48.858;9.184;2023-10-31T05:00:36;9.30;99.90
9219;DHT22;4644;48.858;9.184;2023-10-31T05:03:03;9.30;99.90
9219;DHT22;4644;48.858;9.184;2023-10-31T05:05:30;9.20;99.90
9219;DHT22;4644;48.858;9.184;2023-10-31T05:07:57;9.20;99.90
9219;DHT22;4644;48.858;9.184;2023-10-31T05:10:24;9.20;99.90
9219;DHT22;4644;48.858;9.184;2023-10-31T05:12:51;9.10;99.90
9219;DHT22;4644;48.858;9.184;2023-10-31T05:15:21;9.10;99.90
9219;DHT22;4644;48.858;9.184;2023-10-31T05:17:48;9.10;99.90
9219;DHT22;4644;48.858;9.184;2023-10-31T05:20:15;9.10;99.90
9219;DHT22;4644;48.858;9.184;2023-10-31T05:22:42;9.10;99.90
9219;DHT22;4644;48.858;9.184;2023-10-31T05:25:09;9.00;99.90
9219;DHT22;4644;48.858;9.184;2023-10-31T05:27:36;9.00;99.90
9219;DHT22;4644;48.858;9.184;2023-10-31T05:30:04;9.00;99.90
9219;DHT22;4644;48.858;9.184;2023-10-31T05:32:32;9.00;99.90
9219;DHT22;4644;48.858;9.184;2023-10-31T05:34:59;9.00;99.90
9219;DHT22;4644;48.858;9.184;2023-10-31T05:37:26;9.00;99.90
9219;DHT22;4644;48.858;9.184;2023-10-31T05:39:53;8.90;99.90
9219;DHT22;4644;48.858;9.184;2023-10-31T05:42:20;8.90;99.90
9219;DHT22;4644;48.858;9.184;2023-10-31T05:44:48;9.00;99.90
9219;DHT22;4644;48.858;9.184;2023-10-31T05:47:15;9.00;99.90
9219;DHT22;4644;48.858;9.184;2023-10-31T05:49:45;8.90;99.90
9219;DHT22;4644;48.858;9.184;2023-10-31T05:52:12;9.00;99.90
9219;DHT22;4644;48.858;9.184;2023-10-31T05:54:40;8.90;99.90
9219;DHT22;4644;48.858;9.184;2023-10-31T05:57:07;8.90;99.90
9219;DHT22;4644;48.858;9.184;2023-10-31T05:59:34;8.90;99.90
9219;DHT22;4644;48.858;9.184;2023-10-31T06:02:01;8.90;99.90
9219;DHT22;4644;48.858;9.184;2023-10-31T06:04:28;8.90;99.90
9219;DHT22;4644;48.858;9.184;2023-10-31T06:06:56;8.90;99.90
9219;DHT22;4644;48.858;9.184;2023-10-31T06:09:24;8.90;99.90
9219;DHT22;4644;48.858;9.184;2023-10-31T06:11:51;8.90;99.90
9219;DHT22;4644;48.858;9.184;2023-10-31T06:14:18;9.00;99.90
9219;DHT22;4644;48.858;9.184;2023-10-31T06:16:45;9.00;99.90
9219;DHT22;4644;48.858;9.184;2023-10-31T06:19:12;9.00;99.90
9219;DHT22;4644;48.858;9.184;2023-10-31T06:21:39;9.00;99.90
9219;DHT22;4644;48.858;9.184;2023-10-31T06:24:08;9.00;99.90
9219;DHT22;4644;48.858;9.184;2023-10-31T06:26:35;9.00;99.90
9219;DHT22;4644;48.858;9.184;2023-10-31T06:29:02;8.90;99.90
9219;DHT22;4644;48.858;9.184;2023-10-31T06:31:29;8.90;99.90
9219;DHT22;4644;48.858;9.184;2023-10-31T06:33:56;8.80;99.90
9219;DHT22;4644;48.858;9.184;2023-10-31T06:36:23;8.90;99.90
9219;DHT22;4644;48.858;9.184;2023-10-31T06:38:50;8.80;99.90
9219;DHT22;4644;48.858;9.184;2023-10-31T06:41:18;8.80;99.90
9219;DHT22;4644;48.858;9.184;2023-10-31T06:43:45;8.80;99.90
9219;DHT22;4644;48.858;9.184;2023-10-31T06:46:12;8.80;99.90
9219;DHT22;4644;48.858;9.184;2023-10-31T06:48:40;8.80;99.90
9219;DHT22;4644;48.858;9.184;2023-10-31T06:51:07;8.80;99.90
9219;DHT22;4644;48.858;9.184;2023-10-31T06:53:34;8.90;99.90
9219;DHT22;4644;48.858;9.184;2023-10-31T06:56:02;8.90;99.90
9219;DHT22;4644;48.858;9.184;2023-10-31T06:58:30;9.00;99.90
9219;DHT22;4644;48.858;9.184;2023-10-31T07:00:57;9.10;99.90
9219;DHT22;4644;48.858;9.184;2023-10-31T07:03:25;9.20;99.90
9219;DHT22;4644;48.858;9.184;2023-10-31T07:05:52;9.30;99.90
9219;DHT22;4644;48.858;9.184;2023-10-31T07:08:21;9.40;99.90
9219;DHT22;4644;48.858;9.184;2023-10-31T07:10:48;9.50;99.90
9219;DHT22;4644;48.858;9.184;2023-10-31T07:13:15;9.50;99.90
9219;DHT22;4644;48.858;9.184;2023-10-31T07:15:44;9.50;99.90
9219;DHT22;4644;48.858;9.184;2023-10-31T07:18:12;9.60;99.90
9219;DHT22;4644;48.858;9.184;2023-10-31T07:20:39;9.60;99.90
9219;DHT22;4644;48.858;9.184;2023-10-31T07:23:06;9.60;99.90
9219;DHT22;4644;48.858;9.184;2023-10-31T07:25:33;9.60;99.90
9219;DHT22;4644;48.858;9.184;2023-10-31T07:28:00;9.70;99.90
9219;DHT22;4644;48.858;9.184;2023-10-31T07:30:27;9.70;99.90
9219;DHT22;4644;48.858;9.184;2023-10-31T07:32:55;9.70;99.90
9219;DHT22;4644;48.858;9.184;2023-10-31T07:35:22;9.80;99.90
9219;DHT22;4644;48.858;9.184;2023-10-31T07:37:49;9.80;99.90
9219;DHT22;4644;48.858;9.184;2023-10-31T07:40:16;9.80;99.90
9219;DHT22;4644;48.858;9.184;2023-10-31T07:42:43;9.90;99.90
9219;DHT22;4644;48.858;9.184;2023-10-31T07:45:10;9.90;99.90
9219;DHT22;4644;48.858;9.184;2023-10-31T07:47:37;9.90;99.90
9219;DHT22;4644;48.858;9.184;2023-10-31T07:50:06;10.00;99.90
9219;DHT22;4644;48.858;9.184;2023-10-31T07:52:33;10.10;99.90
9219;DHT22;4644;48.858;9.184;2023-10-31T07:55:00;10.10;99.90
9219;DHT22;4644;48.858;9.184;2023-10-31T07:57:27;10.20;99.90
9219;DHT22;4644;48.858;9.184;2023-10-31T07:59:54;10.20;99.90
9219;DHT22;4644;48.858;9.184;2023-10-31T08:02:21;10.20;99.90
9219;DHT22;4644;48.858;9.184;2023-10-31T08:04:48;10.30;99.90
9219;DHT22;4644;48.858;9.184;2023-10-31T08:07:17;10.40;99.90
9219;DHT22;4644;48.858;9.184;2023-10-31T08:09:44;10.50;99.90
9219;DHT22;4644;48.858;9.184;2023-10-31T08:12:11;10.50;99.90
9219;DHT22;4644;48.858;9.184;2023-10-31T08:14:37;10.50;99.90
9219;DHT22;4644;48.858;9.184;2023-10-31T08:17:04;10.60;99.90
9219;DHT22;4644;48.858;9.184;2023-10-31T08:19:31;10.60;99.90
9219;DHT22;4644;48.858;9.184;2023-10-31T08:21:58;10.60;99.90
9219;DHT22;4644;48.858;9.184;2023-10-31T08:24:26;10.70;99.90
9219;DHT22;4644;48.858;9.184;2023-10-31T08:26:53;10.70;99.90
9219;DHT22;4644;48.858;9.184;2023-10-31T08:29:21;10.80;99.90
9219;DHT22;4644;48.858;9.184;2023-10-31T08:31:48;10.80;99.90
9219;DHT22;4644;48.858;9.184;2023-10-31T08:34:15;10.80;99.90
9219;DHT22;4644;48.858;9.184;2023-10-31T08:36:42;10.90;99.90
9219;DHT22;4644;48.858;9.184;2023-10-31T08:39:09;10.90;99.90
9219;DHT22;4644;48.858;9.184;2023-10-31T08:41:37;11.00;99.90
9219;DHT22;4644;48.858;9.184;2023-10-31T08:44:05;11.10;99.90
9219;DHT22;4644;48.858;9.184;2023-10-31T08:46:33;11.20;99.90
9219;DHT22;4644;48.858;9.184;2023-10-31T08:49:00;11.20;99.90
9219;DHT22;4644;48.858;9.184;2023-10-31T08:51:27;11.20;99.90
9219;DHT22;4644;48.858;9.184;2023-10-31T08:53:54;11.30;99.90
9219;DHT22;4644;48.858;9.184;2023-10-31T08:56:21;11.30;99.90
9219;DHT22;4644;48.858;9.184;2023-10-31T08:58:49;11.20;99.90
9219;DHT22;4644;48.858;9.184;2023-10-31T09:01:16;11.30;99.90
9219;DHT22;4644;48.858;9.184;2023-10-31T09:03:43;11.40;99.90
9219;DHT22;4644;48.858;9.184;2023-10-31T09:06:10;11.50;99.90
9219;DHT22;4644;48.858;9.184;2023-10-31T09:08:37;11.60;99.90
9219;DHT22;4644;48.858;9.184;2023-10-31T09:11:04;11.60;99.90
9219;DHT22;4644;48.858;9.184;2023-10-31T09:13:32;11.70;99.90
9219;DHT22;4644;48.858;9.184;2023-10-31T09:16:00;11.80;99.90
9219;DHT22;4644;48.858;9.184;2023-10-31T09:18:27;11.80;99.90
9219;DHT22;4644;48.858;9.184;2023-10-31T09:20:54;11.90;99.90
9219;DHT22;4644;48.858;9.184;2023-10-31T09:23:21;11.90;99.90
9219;DHT22;4644;48.858;9.184;2023-10-31T09:25:48;11.90;99.90
9219;DHT22;4644;48.858;9.184;2023-10-31T09:28:15;12.00;99.90
9219;DHT22;4644;48.858;9.184;2023-10-31T09:30:42;12.00;99.90
9219;DHT22;4644;48.858;9.184;2023-10-31T09:33:10;12.10;99.90
9219;DHT22;4644;48.858;9.184;2023-10-31T09:35:38;12.20;99.90
9219;DHT22;4644;48.858;9.184;2023-10-31T09:38:05;12.10;99.90
9219;DHT22;4644;48.858;9.184;2023-10-31T09:40:32;12.20;99.90
9219;DHT22;4644;48.858;9.184;2023-10-31T09:42:59;12.20;99.90
9219;DHT22;4644;48.858;9.184;2023-10-31T09:45:26;12.20;99.90
9219;DHT22;4644;48.858;9.184;2023-10-31T09:47:53;12.30;99.90
9219;DHT22;4644;48.858;9.184;2023-10-31T09:50:22;12.20;99.90
9219;DHT22;4644;48.858;9.184;2023-10-31T09:52:49;12.10;99.90
9219;DHT22;4644;48.858;9.184;2023-10-31T09:55:17;12.00;99.90
9219;DHT22;4644;48.858;9.184;2023-10-31T09:57:45;12.00;99.90
9219;DHT22;4644;48.858;9.184;2023-10-31T10:00:12;12.10;99.90
9219;DHT22;4644;48.858;9.184;2023-10-31T10:02:40;12.10;99.90
9219;DHT22;4644;48.858;9.184;2023-10-31T10:05:09;12.10;99.90
9219;DHT22;4644;48.858;9.184;2023-10-31T10:07:41;12.10;99.90
9219;DHT22;4644;48.858;9.184;2023-10-31T10:10:10;12.10;99.90
9219;DHT22;4644;48.858;9.184;2023-10-31T10:12:37;12.10;99.90
9219;DHT22;4644;48.858;9.184;2023-10-31T10:15:06;12.00;99.90
9219;DHT22;4644;48.858;9.184;2023-10-31T10:17:33;12.10;99.90
9219;DHT22;4644;48.858;9.184;2023-10-31T10:20:07;12.00;99.90
9219;DHT22;4644;48.858;9.184;2023-10-31T10:22:38;12.00;99.90
9219;DHT22;4644;48.858;9.184;2023-10-31T10:25:06;12.10;99.90
9219;DHT22;4644;48.858;9.184;2023-10-31T10:27:33;12.10;99.90
9219;DHT22;4644;48.858;9.184;2023-10-31T10:30:01;12.20;99.90
9219;DHT22;4644;48.858;9.184;2023-10-31T10:32:28;12.20;99.90
9219;DHT22;4644;48.858;9.184;2023-10-31T10:34:55;12.30;99.90
9219;DHT22;4644;48.858;9.184;2023-10-31T10:37:23;12.40;99.90
9219;DHT22;4644;48.858;9.184;2023-10-31T10:39:53;12.50;99.90
9219;DHT22;4644;48.858;9.184;2023-10-31T10:42:27;12.50;99.90
9219;DHT22;4644;48.858;9.184;2023-10-31T10:44:58;12.60;99.90
9219;DHT22;4644;48.858;9.184;2023-10-31T10:47:28;12.60;99.90
9219;DHT22;4644;48.858;9.184;2023-10-31T10:49:58;12.60;99.90
9219;DHT22;4644;48.858;9.184;2023-10-31T10:52:29;12.50;99.90
9219;DHT22;4644;48.858;9.184;2023-10-31T10:55:03;12.60;99.90
9219;DHT22;4644;48.858;9.184;2023-10-31T10:57:37;12.70;99.90
9219;DHT22;4644;48.858;9.184;2023-10-31T11:00:06;12.70;99.90
9219;DHT22;4644;48.858;9.184;2023-10-31T11:02:39;12.80;99.90
9219;DHT22;4644;48.858;9.184;2023-10-31T11:05:07;12.90;99.90
9219;DHT22;4644;48.858;9.184;2023-10-31T11:07:34;13.00;99.90
9219;DHT22;4644;48.858;9.184;2023-10-31T11:10:04;12.90;99.90
9219;DHT22;4644;48.858;9.184;2023-10-31T11:12:32;12.90;99.90
9219;DHT22;4644;48.858;9.184;2023-10-31T11:14:59;12.90;99.90
9219;DHT22;4644;48.858;9.184;2023-10-31T11:17:29;12.90;99.90
9219;DHT22;4644;48.858;9.184;2023-10-31T11:19:58;13.00;99.90
9219;DHT22;4644;48.858;9.184;2023-10-31T11:22:25;13.00;99.90
9219;DHT22;4644;48.858;9.184;2023-10-31T11:24:52;13.00;99.90
9219;DHT22;4644;48.858;9.184;2023-10-31T11:27:21;13.00;99.90
9219;DHT22;4644;48.858;9.184;2023-10-31T11:29:47;13.00;99.90
9219;DHT22;4644;48.858;9.184;2023-10-31T11:32:15;13.10;99.90
9219;DHT22;4644;48.858;9.184;2023-10-31T11:34:42;13.20;99.90
9219;DHT22;4644;48.858;9.184;2023-10-31T11:37:23;13.20;99.90
9219;DHT22;4644;48.858;9.184;2023-10-31T11:40:15;13.20;99.90
9219;DHT22;4644;48.858;9.184;2023-10-31T11:42:47;13.10;99.90
9219;DHT22;4644;48.858;9.184;2023-10-31T11:45:25;13.10;99.90
9219;DHT22;4644;48.858;9.184;2023-10-31T11:47:52;13.10;99.90
9219;DHT22;4644;48.858;9.184;2023-10-31T11:50:20;13.10;99.90
9219;DHT22;4644;48.858;9.184;2023-10-31T11:52:58;13.10;99.90
9219;DHT22;4644;48.858;9.184;2023-10-31T11:55:25;13.00;99.90
9219;DHT22;4644;48.858;9.184;2023-10-31T11:57:54;12.90;99.90
9219;DHT22;4644;48.858;9.184;2023-10-31T12:00:22;12.90;99.90
9219;DHT22;4644;48.858;9.184;2023-10-31T12:02:59;12.80;99.90
9219;DHT22;4644;48.858;9.184;2023-10-31T12:05:26;12.80;99.90
9219;DHT22;4644;48.858;9.184;2023-10-31T12:07:53;12.70;99.90
9219;DHT22;4644;48.858;9.184;2023-10-31T12:10:25;12.70;99.90
9219;DHT22;4644;48.858;9.184;2023-10-31T12:12:57;12.70;99.90
9219;DHT22;4644;48.858;9.184;2023-10-31T12:15:25;12.70;99.90
9219;DHT22;4644;48.858;9.184;2023-10-31T12:17:52;12.70;99.90
9219;DHT22;4644;48.858;9.184;2023-10-31T12:20:19;12.70;99.90
9219;DHT22;4644;48.858;9.184;2023-10-31T12:22:46;12.80;99.90
9219;DHT22;4644;48.858;9.184;2023-10-31T12:25:13;12.90;99.90
9219;DHT22;4644;48.858;9.184;2023-10-31T12:27:44;13.00;99.90
9219;DHT22;4644;48.858;9.184;2023-10-31T12:30:14;13.10;99.90
9219;DHT22;4644;48.858;9.184;2023-10-31T12:32:42;13.20;99.90
9219;DHT22;4644;48.858;9.184;2023-10-31T12:35:11;13.30;99.90
9219;DHT22;4644;48.858;9.184;2023-10-31T12:37:43;13.30;99.90
9219;DHT22;4644;48.858;9.184;2023-10-31T12:40:12;13.30;99.90
9219;DHT22;4644;48.858;9.184;2023-10-31T12:42:42;13.30;99.90
9219;DHT22;4644;48.858;9.184;2023-10-31T12:45:12;13.30;99.90
9219;DHT22;4644;48.858;9.184;2023-10-31T12:47:40;13.30;99.90
9219;DHT22;4644;48.858;9.184;2023-10-31T12:50:08;13.30;99.90
9219;DHT22;4644;48.858;9.184;2023-10-31T12:52:48;13.20;99.90
9219;DHT22;4644;48.858;9.184;2023-10-31T12:55:17;13.20;99.90
9219;DHT22;4644;48.858;9.184;2023-10-31T12:57:44;13.10;99.90
9219;DHT22;4644;48.858;9.184;2023-10-31T13:00:15;13.10;99.90
9219;DHT22;4644;48.858;9.184;2023-10-31T13:02:45;13.00;99.90
9219;DHT22;4644;48.858;9.184;2023-10-31T13:05:12;13.00;99.90
9219;DHT22;4644;48.858;9.184;2023-10-31T13:07:40;12.90;99.90
9219;DHT22;4644;48.858;9.184;2023-10-31T13:10:15;12.90;99.90
9219;DHT22;4644;48.858;9.184;2023-10-31T13:12:44;12.80;99.90
9219;DHT22;4644;48.858;9.184;2023-10-31T13:15:14;12.80;99.90
9219;DHT22;4644;48.858;9.184;2023-10-31T13:17:41;12.80;99.90
9219;DHT22;4644;48.858;9.184;2023-10-31T13:20:09;12.80;99.90
9219;DHT22;4644;48.858;9.184;2023-10-31T13:22:37;12.80;99.90
9219;DHT22;4644;48.858;9.184;2023-10-31T13:25:05;12.80;99.90
9219;DHT22;4644;48.858;9.184;2023-10-31T13:27:33;12.80;99.90
9219;DHT22;4644;48.858;9.184;2023-10-31T13:30:01;12.80;99.90
9219;DHT22;4644;48.858;9.184;2023-10-31T13:32:29;12.70;99.90
9219;DHT22;4644;48.858;9.184;2023-10-31T13:34:56;12.70;99.90
9219;DHT22;4644;48.858;9.184;2023-10-31T13:37:23;12.80;99.90
9219;DHT22;4644;48.858;9.184;2023-10-31T13:39:50;12.80;99.90
9219;DHT22;4644;48.858;9.184;2023-10-31T13:42:17;12.90;99.90
9219;DHT22;4644;48.858;9.184;2023-10-31T13:44:47;12.90;99.90
9219;DHT22;4644;48.858;9.184;2023-10-31T13:47:14;12.90;99.90
9219;DHT22;4644;48.858;9.184;2023-10-31T13:49:43;12.90;99.90
9219;DHT22;4644;48.858;9.184;2023-10-31T13:52:10;12.80;99.90
9219;DHT22;4644;48.858;9.184;2023-10-31T13:54:37;12.80;99.90
9219;DHT22;4644;48.858;9.184;2023-10-31T13:57:04;12.80;99.90
9219;DHT22;4644;48.858;9.184;2023-10-31T13:59:31;12.80;99.90
9219;DHT22;4644;48.858;9.184;2023-10-31T14:01:58;12.70;99.90
9219;DHT22;4644;48.858;9.184;2023-10-31T14:04:25;12.70;99.90
9219;DHT22;4644;48.858;9.184;2023-10-31T14:06:56;12.70;99.90
9219;DHT22;4644;48.858;9.184;2023-10-31T14:09:24;12.70;99.90
9219;DHT22;4644;48.858;9.184;2023-10-31T14:11:50;12.70;99.90
9219;DHT22;4644;48.858;9.184;2023-10-31T14:14:18;12.60;99.90
9219;DHT22;4644;48.858;9.184;2023-10-31T14:16:45;12.60;99.90
9219;DHT22;4644;48.858;9.184;2023-10-31T14:19:13;12.60;99.90
9219;DHT22;4644;48.858;9.184;2023-10-31T14:21:42;12.70;99.90
9219;DHT22;4644;48.858;9.184;2023-10-31T14:24:10;12.70;99.90
9219;DHT22;4644;48.858;9.184;2023-10-31T14:26:37;12.80;99.90
9219;DHT22;4644;48.858;9.184;2023-10-31T14:29:05;12.80;99.90
9219;DHT22;4644;48.858;9.184;2023-10-31T14:31:38;12.80;99.90
9219;DHT22;4644;48.858;9.184;2023-10-31T14:34:05;12.90;99.90
9219;DHT22;4644;48.858;9.184;2023-10-31T14:36:32;12.90;99.90
9219;DHT22;4644;48.858;9.184;2023-10-31T14:38:59;13.00;99.90
9219;DHT22;4644;48.858;9.184;2023-10-31T14:41:27;13.00;99.90
9219;DHT22;4644;48.858;9.184;2023-10-31T14:43:58;13.00;99.90
9219;DHT22;4644;48.858;9.184;2023-10-31T14:46:25;13.00;99.90
9219;DHT22;4644;48.858;9.184;2023-10-31T14:48:53;12.90;99.90
9219;DHT22;4644;48.858;9.184;2023-10-31T14:51:20;12.90;99.90
9219;DHT22;4644;48.858;9.184;2023-10-31T14:53:47;12.90;99.90
9219;DHT22;4644;48.858;9.184;2023-10-31T14:56:14;12.90;99.90
9219;DHT22;4644;48.858;9.184;2023-10-31T14:58:42;12.80;99.90
9219;DHT22;4644;48.858;9.184;2023-10-31T15:01:09;12.80;99.90
9219;DHT22;4644;48.858;9.184;2023-10-31T15:03:36;12.80;99.90
9219;DHT22;4644;48.858;9.184;2023-10-31T15:06:03;12.80;99.90
9219;DHT22;4644;48.858;9.184;2023-10-31T15:08:33;12.70;99.90
9219;DHT22;4644;48.858;9.184;2023-10-31T15:11:00;12.60;99.90
9219;DHT22;4644;48.858;9.184;2023-10-31T15:13:27;12.50;99.90
9219;DHT22;4644;48.858;9.184;2023-10-31T15:15:55;12.40;99.90
9219;DHT22;4644;48.858;9.184;2023-10-31T15:18:22;12.30;99.90
9219;DHT22;4644;48.858;9.184;2023-10-31T15:20:49;12.20;99.90
9219;DHT22;4644;48.858;9.184;2023-10-31T15:23:16;12.20;99.90
9219;DHT22;4644;48.858;9.184;2023-10-31T15:25:43;12.10;99.90
9219;DHT22;4644;48.858;9.184;2023-10-31T15:28:10;12.00;99.90
9219;DHT22;4644;48.858;9.184;2023-10-31T15:30:40;12.00;99.90
9219;DHT22;4644;48.858;9.184;2023-10-31T15:33:08;11.80;99.90
9219;DHT22;4644;48.858;9.184;2023-10-31T15:35:35;11.80;99.90
9219;DHT22;4644;48.858;9.184;2023-10-31T15:38:02;11.70;99.90
9219;DHT22;4644;48.858;9.184;2023-10-31T15:40:29;11.60;99.90
9219;DHT22;4644;48.858;9.184;2023-10-31T15:42:56;11.50;99.90
9219;DHT22;4644;48.858;9.184;2023-10-31T15:45:23;11.50;99.90
9219;DHT22;4644;48.858;9.184;2023-10-31T15:47:50;11.40;99.90
9219;DHT22;4644;48.858;9.184;2023-10-31T15:50:18;11.30;99.90
9219;DHT22;4644;48.858;9.184;2023-10-31T15:52:45;11.20;99.90
9219;DHT22;4644;48.858;9.184;2023-10-31T15:55:14;11.20;99.90
9219;DHT22;4644;48.858;9.184;2023-10-31T15:57:44;11.20;99.90
9219;DHT22;4644;48.858;9.184;2023-10-31T16:00:12;11.20;99.90
9219;DHT22;4644;48.858;9.184;2023-10-31T16:02:39;11.20;99.90
9219;DHT22;4644;48.858;9.184;2023-10-31T16:05:07;11.20;99.90
9219;DHT22;4644;48.858;9.184;2023-10-31T16:07:35;11.20;99.90
9219;DHT22;4644;48.858;9.184;2023-10-31T16:10:03;11.20;99.90
9219;DHT22;4644;48.858;9.184;2023-10-31T16:12:31;11.20;99.90
9219;DHT22;4644;48.858;9.184;2023-10-31T16:14:58;11.20;99.90
9219;DHT22;4644;48.858;9.184;2023-10-31T16:17:25;11.20;99.90